LQTZ/TZL METAR and TAF weather

Enter ICAO airport designator
Station Type Date Time Source
LQTZ METAR 2018/12/16 23:00 UTC NOAA

LQTZ 162300Z 28003KT 0700 R09/0200N FZFG BKN001 M12/M13 Q1020


Station Type Date Time Source
LQTZ Decoded METAR 2018/12/16 23:00 UTC NOAA

Tuzla, Bosnia and Herzegovina (LQTZ) 44-33N 018-42E
Dec 16, 2018 - 06:00 PM EST / 2018.12.16 2300 UTC
Wind: from the W (280 degrees) at 3 MPH (3 KT):0
Visibility: less than 1 mile:0
Sky conditions: mostly cloudy
Weather: freezing fog
Temperature: 10 F (-12 C)
Dew Point: 8 F (-13 C)
Relative Humidity: 92%
Pressure (altimeter): 30.12 in. Hg (1020 hPa)
ob: LQTZ 162300Z 28003KT 0700 R09/0200N FZFG BKN001 M12/M13 Q1020
cycle: 23

Station Type Date Time Source
LQTZ TAF 2018/12/16 23:06 UTC NOAA

TAF LQTZ 162301Z 1623/1718 CNL


Example: see airport list